sensor_id;sensor_type;location;lat;lon;timestamp;P1;durP1;ratioP1;P2;durP2;ratioP2
61685;SDS011;47592;45.904;8.978;2022-09-29T00:02:09;5.53;;;2.58;;
61685;SDS011;47592;45.904;8.978;2022-09-29T00:04:34;5.68;;;2.83;;
61685;SDS011;47592;45.904;8.978;2022-09-29T00:06:59;5.47;;;2.60;;
61685;SDS011;47592;45.904;8.978;2022-09-29T00:09:25;7.00;;;2.45;;
61685;SDS011;47592;45.904;8.978;2022-09-29T00:11:54;6.32;;;2.55;;
61685;SDS011;47592;45.904;8.978;2022-09-29T00:14:20;5.13;;;2.30;;
61685;SDS011;47592;45.904;8.978;2022-09-29T00:16:46;7.03;;;2.22;;
61685;SDS011;47592;45.904;8.978;2022-09-29T00:19:12;5.93;;;2.20;;
61685;SDS011;47592;45.904;8.978;2022-09-29T00:21:37;6.65;;;2.65;;
61685;SDS011;47592;45.904;8.978;2022-09-29T00:24:03;7.70;;;3.33;;
61685;SDS011;47592;45.904;8.978;2022-09-29T00:26:28;5.25;;;2.10;;
61685;SDS011;47592;45.904;8.978;2022-09-29T00:28:54;5.43;;;2.38;;
61685;SDS011;47592;45.904;8.978;2022-09-29T00:31:22;6.65;;;2.30;;
61685;SDS011;47592;45.904;8.978;2022-09-29T00:33:51;6.32;;;2.15;;
61685;SDS011;47592;45.904;8.978;2022-09-29T00:36:18;5.88;;;2.30;;
61685;SDS011;47592;45.904;8.978;2022-09-29T00:38:45;4.75;;;2.13;;
61685;SDS011;47592;45.904;8.978;2022-09-29T00:41:21;5.28;;;2.30;;
61685;SDS011;47592;45.904;8.978;2022-09-29T00:43:53;6.05;;;2.20;;
61685;SDS011;47592;45.904;8.978;2022-09-29T00:46:55;5.18;;;2.20;;
61685;SDS011;47592;45.904;8.978;2022-09-29T00:54:42;5.78;;;2.10;;
61685;SDS011;47592;45.904;8.978;2022-09-29T00:57:10;5.38;;;2.28;;
61685;SDS011;47592;45.904;8.978;2022-09-29T01:02:23;4.20;;;2.00;;
61685;SDS011;47592;45.904;8.978;2022-09-29T01:04:51;5.82;;;2.30;;
61685;SDS011;47592;45.904;8.978;2022-09-29T01:07:18;5.25;;;2.20;;
61685;SDS011;47592;45.904;8.978;2022-09-29T01:09:46;4.97;;;2.33;;
61685;SDS011;47592;45.904;8.978;2022-09-29T01:12:12;5.68;;;2.08;;
61685;SDS011;47592;45.904;8.978;2022-09-29T01:14:37;4.43;;;2.20;;
61685;SDS011;47592;45.904;8.978;2022-09-29T01:17:04;5.47;;;1.88;;
61685;SDS011;47592;45.904;8.978;2022-09-29T01:38:06;5.18;;;2.08;;
61685;SDS011;47592;45.904;8.978;2022-09-29T01:43:30;5.07;;;2.00;;
61685;SDS011;47592;45.904;8.978;2022-09-29T01:46:01;6.05;;;1.95;;
61685;SDS011;47592;45.904;8.978;2022-09-29T01:48:30;4.57;;;1.83;;
61685;SDS011;47592;45.904;8.978;2022-09-29T01:50:59;7.20;;;2.20;;
61685;SDS011;47592;45.904;8.978;2022-09-29T01:53:29;13.50;;;2.30;;
61685;SDS011;47592;45.904;8.978;2022-09-29T01:56:00;6.20;;;2.40;;
61685;SDS011;47592;45.904;8.978;2022-09-29T01:58:32;6.78;;;2.20;;
61685;SDS011;47592;45.904;8.978;2022-09-29T02:01:03;4.57;;;1.98;;
61685;SDS011;47592;45.904;8.978;2022-09-29T02:03:39;5.77;;;2.40;;
61685;SDS011;47592;45.904;8.978;2022-09-29T02:06:07;4.72;;;2.13;;
61685;SDS011;47592;45.904;8.978;2022-09-29T02:08:41;5.45;;;2.22;;
61685;SDS011;47592;45.904;8.978;2022-09-29T02:11:11;5.72;;;2.20;;
61685;SDS011;47592;45.904;8.978;2022-09-29T02:16:08;4.55;;;2.03;;
61685;SDS011;47592;45.904;8.978;2022-09-29T02:18:59;5.57;;;1.98;;
61685;SDS011;47592;45.904;8.978;2022-09-29T02:21:28;4.32;;;2.03;;
61685;SDS011;47592;45.904;8.978;2022-09-29T02:23:54;5.75;;;2.20;;
61685;SDS011;47592;45.904;8.978;2022-09-29T02:26:20;5.43;;;2.20;;
61685;SDS011;47592;45.904;8.978;2022-09-29T02:28:45;4.53;;;2.22;;
61685;SDS011;47592;45.904;8.978;2022-09-29T02:31:11;5.18;;;2.33;;
61685;SDS011;47592;45.904;8.978;2022-09-29T02:33:37;5.78;;;2.35;;
61685;SDS011;47592;45.904;8.978;2022-09-29T02:38:52;4.95;;;2.00;;
61685;SDS011;47592;45.904;8.978;2022-09-29T02:44:16;7.30;;;2.42;;
61685;SDS011;47592;45.904;8.978;2022-09-29T02:47:04;4.50;;;2.15;;
61685;SDS011;47592;45.904;8.978;2022-09-29T02:58:17;5.50;;;2.00;;
61685;SDS011;47592;45.904;8.978;2022-09-29T03:00:44;4.70;;;2.25;;
61685;SDS011;47592;45.904;8.978;2022-09-29T03:03:10;4.75;;;2.40;;
61685;SDS011;47592;45.904;8.978;2022-09-29T03:05:35;6.32;;;2.15;;
61685;SDS011;47592;45.904;8.978;2022-09-29T03:08:01;6.43;;;2.17;;
61685;SDS011;47592;45.904;8.978;2022-09-29T03:10:26;4.70;;;1.90;;
61685;SDS011;47592;45.904;8.978;2022-09-29T03:12:51;6.22;;;2.50;;
61685;SDS011;47592;45.904;8.978;2022-09-29T03:15:17;4.63;;;2.25;;
61685;SDS011;47592;45.904;8.978;2022-09-29T03:17:43;4.30;;;2.10;;
61685;SDS011;47592;45.904;8.978;2022-09-29T03:20:09;4.95;;;2.28;;
61685;SDS011;47592;45.904;8.978;2022-09-29T03:22:34;4.95;;;2.13;;
61685;SDS011;47592;45.904;8.978;2022-09-29T03:25:00;6.18;;;2.67;;
61685;SDS011;47592;45.904;8.978;2022-09-29T03:27:26;6.03;;;2.15;;
61685;SDS011;47592;45.904;8.978;2022-09-29T03:29:52;5.32;;;2.70;;
61685;SDS011;47592;45.904;8.978;2022-09-29T03:32:17;5.65;;;1.90;;
61685;SDS011;47592;45.904;8.978;2022-09-29T03:34:42;6.70;;;2.38;;
61685;SDS011;47592;45.904;8.978;2022-09-29T03:37:08;5.57;;;2.13;;
61685;SDS011;47592;45.904;8.978;2022-09-29T03:39:33;6.30;;;2.20;;
61685;SDS011;47592;45.904;8.978;2022-09-29T03:41:59;5.53;;;2.42;;
61685;SDS011;47592;45.904;8.978;2022-09-29T03:44:24;5.25;;;2.15;;
61685;SDS011;47592;45.904;8.978;2022-09-29T03:46:50;10.35;;;2.60;;
61685;SDS011;47592;45.904;8.978;2022-09-29T03:49:15;6.63;;;2.45;;
61685;SDS011;47592;45.904;8.978;2022-09-29T03:51:41;4.28;;;2.13;;
61685;SDS011;47592;45.904;8.978;2022-09-29T03:54:07;5.82;;;2.00;;
61685;SDS011;47592;45.904;8.978;2022-09-29T03:56:32;6.97;;;2.03;;
61685;SDS011;47592;45.904;8.978;2022-09-29T03:58:58;5.28;;;2.00;;
61685;SDS011;47592;45.904;8.978;2022-09-29T04:01:23;5.20;;;2.05;;
61685;SDS011;47592;45.904;8.978;2022-09-29T04:03:49;4.47;;;2.08;;
61685;SDS011;47592;45.904;8.978;2022-09-29T04:06:14;6.43;;;2.20;;
61685;SDS011;47592;45.904;8.978;2022-09-29T04:08:40;6.07;;;2.22;;
61685;SDS011;47592;45.904;8.978;2022-09-29T04:11:05;5.13;;;2.38;;
61685;SDS011;47592;45.904;8.978;2022-09-29T04:13:31;5.90;;;2.55;;
61685;SDS011;47592;45.904;8.978;2022-09-29T04:16:00;4.57;;;2.13;;
61685;SDS011;47592;45.904;8.978;2022-09-29T04:18:27;4.53;;;2.20;;
61685;SDS011;47592;45.904;8.978;2022-09-29T04:20:53;5.10;;;2.20;;
61685;SDS011;47592;45.904;8.978;2022-09-29T04:23:19;5.40;;;1.98;;
61685;SDS011;47592;45.904;8.978;2022-09-29T04:25:46;4.63;;;2.13;;
61685;SDS011;47592;45.904;8.978;2022-09-29T04:28:11;6.93;;;2.33;;
61685;SDS011;47592;45.904;8.978;2022-09-29T04:30:37;5.22;;;2.08;;
61685;SDS011;47592;45.904;8.978;2022-09-29T04:33:03;4.90;;;2.00;;
61685;SDS011;47592;45.904;8.978;2022-09-29T04:35:28;4.43;;;2.13;;
61685;SDS011;47592;45.904;8.978;2022-09-29T04:37:57;5.38;;;2.00;;
61685;SDS011;47592;45.904;8.978;2022-09-29T04:40:23;5.28;;;2.25;;
61685;SDS011;47592;45.904;8.978;2022-09-29T04:42:49;5.40;;;2.10;;
61685;SDS011;47592;45.904;8.978;2022-09-29T04:45:14;5.10;;;2.35;;
61685;SDS011;47592;45.904;8.978;2022-09-29T04:47:40;4.13;;;2.00;;
61685;SDS011;47592;45.904;8.978;2022-09-29T04:50:05;8.32;;;2.70;;
61685;SDS011;47592;45.904;8.978;2022-09-29T04:52:31;5.70;;;2.20;;
61685;SDS011;47592;45.904;8.978;2022-09-29T04:54:57;6.75;;;2.50;;
61685;SDS011;47592;45.904;8.978;2022-09-29T04:57:22;7.38;;;2.30;;
61685;SDS011;47592;45.904;8.978;2022-09-29T04:59:48;5.78;;;2.60;;
61685;SDS011;47592;45.904;8.978;2022-09-29T05:02:17;5.57;;;2.40;;
61685;SDS011;47592;45.904;8.978;2022-09-29T05:04:43;5.15;;;2.20;;
61685;SDS011;47592;45.904;8.978;2022-09-29T05:07:09;5.72;;;2.75;;
61685;SDS011;47592;45.904;8.978;2022-09-29T05:09:35;7.57;;;2.45;;
61685;SDS011;47592;45.904;8.978;2022-09-29T05:12:01;7.00;;;2.08;;
61685;SDS011;47592;45.904;8.978;2022-09-29T05:14:26;6.00;;;2.50;;
61685;SDS011;47592;45.904;8.978;2022-09-29T05:16:55;8.27;;;2.95;;
61685;SDS011;47592;45.904;8.978;2022-09-29T05:19:20;5.18;;;2.15;;
61685;SDS011;47592;45.904;8.978;2022-09-29T05:21:46;5.57;;;2.42;;
61685;SDS011;47592;45.904;8.978;2022-09-29T05:24:12;5.85;;;2.30;;
61685;SDS011;47592;45.904;8.978;2022-09-29T05:26:37;5.50;;;2.20;;
61685;SDS011;47592;45.904;8.978;2022-09-29T05:29:03;5.45;;;2.25;;
61685;SDS011;47592;45.904;8.978;2022-09-29T05:31:28;4.47;;;2.30;;
61685;SDS011;47592;45.904;8.978;2022-09-29T05:33:54;8.63;;;2.38;;
61685;SDS011;47592;45.904;8.978;2022-09-29T05:36:20;5.55;;;2.47;;
61685;SDS011;47592;45.904;8.978;2022-09-29T05:38:46;10.32;;;2.60;;
61685;SDS011;47592;45.904;8.978;2022-09-29T05:41:11;6.38;;;2.60;;
61685;SDS011;47592;45.904;8.978;2022-09-29T05:43:37;5.05;;;2.40;;
61685;SDS011;47592;45.904;8.978;2022-09-29T05:46:04;5.32;;;2.40;;
61685;SDS011;47592;45.904;8.978;2022-09-29T05:48:31;5.10;;;2.22;;
61685;SDS011;47592;45.904;8.978;2022-09-29T05:50:57;5.03;;;2.50;;
61685;SDS011;47592;45.904;8.978;2022-09-29T05:53:23;6.60;;;2.63;;
61685;SDS011;47592;45.904;8.978;2022-09-29T05:55:48;6.78;;;2.75;;
61685;SDS011;47592;45.904;8.978;2022-09-29T05:58:14;5.40;;;2.38;;
61685;SDS011;47592;45.904;8.978;2022-09-29T06:00:39;4.45;;;2.17;;
61685;SDS011;47592;45.904;8.978;2022-09-29T06:03:05;5.43;;;2.53;;
61685;SDS011;47592;45.904;8.978;2022-09-29T06:05:30;5.60;;;2.13;;
61685;SDS011;47592;45.904;8.978;2022-09-29T06:07:56;5.80;;;2.38;;
61685;SDS011;47592;45.904;8.978;2022-09-29T06:10:23;6.47;;;2.33;;
61685;SDS011;47592;45.904;8.978;2022-09-29T06:12:48;5.97;;;2.17;;
61685;SDS011;47592;45.904;8.978;2022-09-29T06:15:14;4.57;;;2.25;;
61685;SDS011;47592;45.904;8.978;2022-09-29T06:17:39;5.22;;;2.22;;
61685;SDS011;47592;45.904;8.978;2022-09-29T06:20:05;7.45;;;2.65;;
61685;SDS011;47592;45.904;8.978;2022-09-29T06:22:31;5.15;;;2.42;;
61685;SDS011;47592;45.904;8.978;2022-09-29T06:24:57;5.35;;;2.30;;
61685;SDS011;47592;45.904;8.978;2022-09-29T06:27:23;4.88;;;2.10;;
61685;SDS011;47592;45.904;8.978;2022-09-29T06:29:48;8.38;;;2.47;;
61685;SDS011;47592;45.904;8.978;2022-09-29T06:32:13;5.82;;;2.10;;
61685;SDS011;47592;45.904;8.978;2022-09-29T06:34:39;6.50;;;2.13;;
61685;SDS011;47592;45.904;8.978;2022-09-29T06:37:24;4.60;;;2.10;;
61685;SDS011;47592;45.904;8.978;2022-09-29T06:39:59;5.88;;;2.20;;
61685;SDS011;47592;45.904;8.978;2022-09-29T06:42:24;6.30;;;2.08;;
61685;SDS011;47592;45.904;8.978;2022-09-29T06:44:50;6.15;;;2.40;;
61685;SDS011;47592;45.904;8.978;2022-09-29T06:47:16;6.05;;;2.17;;
61685;SDS011;47592;45.904;8.978;2022-09-29T06:49:41;12.27;;;2.67;;
61685;SDS011;47592;45.904;8.978;2022-09-29T06:52:07;36.15;;;4.22;;
61685;SDS011;47592;45.904;8.978;2022-09-29T06:54:33;7.35;;;2.85;;
61685;SDS011;47592;45.904;8.978;2022-09-29T06:56:58;7.15;;;2.40;;
61685;SDS011;47592;45.904;8.978;2022-09-29T06:59:25;5.43;;;2.30;;
61685;SDS011;47592;45.904;8.978;2022-09-29T07:01:50;7.30;;;2.42;;
61685;SDS011;47592;45.904;8.978;2022-09-29T07:04:16;4.53;;;2.30;;
61685;SDS011;47592;45.904;8.978;2022-09-29T07:06:42;5.60;;;2.58;;
61685;SDS011;47592;45.904;8.978;2022-09-29T07:09:09;6.05;;;2.45;;
61685;SDS011;47592;45.904;8.978;2022-09-29T07:11:39;6.60;;;2.25;;
61685;SDS011;47592;45.904;8.978;2022-09-29T07:14:06;6.35;;;2.17;;
61685;SDS011;47592;45.904;8.978;2022-09-29T07:16:31;6.28;;;2.28;;
61685;SDS011;47592;45.904;8.978;2022-09-29T07:18:57;5.28;;;2.10;;
61685;SDS011;47592;45.904;8.978;2022-09-29T07:21:22;6.90;;;2.83;;
61685;SDS011;47592;45.904;8.978;2022-09-29T07:23:47;5.97;;;2.35;;
61685;SDS011;47592;45.904;8.978;2022-09-29T07:26:13;4.65;;;2.10;;
61685;SDS011;47592;45.904;8.978;2022-09-29T07:28:43;5.93;;;2.28;;
61685;SDS011;47592;45.904;8.978;2022-09-29T07:31:11;6.00;;;2.38;;
61685;SDS011;47592;45.904;8.978;2022-09-29T07:33:38;6.57;;;2.45;;
61685;SDS011;47592;45.904;8.978;2022-09-29T07:36:03;6.20;;;2.15;;
61685;SDS011;47592;45.904;8.978;2022-09-29T07:38:29;4.75;;;2.20;;
61685;SDS011;47592;45.904;8.978;2022-09-29T07:40:59;4.85;;;2.30;;
61685;SDS011;47592;45.904;8.978;2022-09-29T07:43:28;11.65;;;3.20;;
61685;SDS011;47592;45.904;8.978;2022-09-29T07:45:54;6.05;;;2.45;;
61685;SDS011;47592;45.904;8.978;2022-09-29T07:48:20;7.15;;;2.35;;
61685;SDS011;47592;45.904;8.978;2022-09-29T07:50:46;4.82;;;2.30;;
61685;SDS011;47592;45.904;8.978;2022-09-29T07:53:12;7.35;;;2.67;;
61685;SDS011;47592;45.904;8.978;2022-09-29T07:55:37;5.07;;;2.25;;
61685;SDS011;47592;45.904;8.978;2022-09-29T07:58:03;5.50;;;2.50;;
61685;SDS011;47592;45.904;8.978;2022-09-29T08:00:29;5.40;;;2.30;;
61685;SDS011;47592;45.904;8.978;2022-09-29T08:02:58;8.55;;;3.08;;
61685;SDS011;47592;45.904;8.978;2022-09-29T08:05:27;5.85;;;2.20;;
61685;SDS011;47592;45.904;8.978;2022-09-29T08:07:53;6.95;;;2.17;;
61685;SDS011;47592;45.904;8.978;2022-09-29T08:10:19;5.95;;;2.10;;
61685;SDS011;47592;45.904;8.978;2022-09-29T08:12:44;5.18;;;2.25;;
61685;SDS011;47592;45.904;8.978;2022-09-29T08:15:10;5.88;;;2.53;;
61685;SDS011;47592;45.904;8.978;2022-09-29T08:17:35;5.90;;;2.30;;
61685;SDS011;47592;45.904;8.978;2022-09-29T08:20:00;5.20;;;2.22;;
61685;SDS011;47592;45.904;8.978;2022-09-29T08:22:26;6.00;;;2.15;;
61685;SDS011;47592;45.904;8.978;2022-09-29T08:24:51;5.50;;;2.40;;
61685;SDS011;47592;45.904;8.978;2022-09-29T08:27:17;7.43;;;2.30;;
61685;SDS011;47592;45.904;8.978;2022-09-29T08:29:42;7.53;;;2.97;;
61685;SDS011;47592;45.904;8.978;2022-09-29T08:32:07;8.15;;;2.92;;
61685;SDS011;47592;45.904;8.978;2022-09-29T08:34:33;7.93;;;3.00;;
61685;SDS011;47592;45.904;8.978;2022-09-29T08:36:58;8.77;;;3.65;;
61685;SDS011;47592;45.904;8.978;2022-09-29T08:39:24;7.13;;;3.20;;
61685;SDS011;47592;45.904;8.978;2022-09-29T08:41:51;7.10;;;3.72;;
61685;SDS011;47592;45.904;8.978;2022-09-29T08:46:47;10.35;;;3.15;;
61685;SDS011;47592;45.904;8.978;2022-09-29T08:49:17;5.95;;;2.42;;
61685;SDS011;47592;45.904;8.978;2022-09-29T08:51:45;7.23;;;2.43;;
61685;SDS011;47592;45.904;8.978;2022-09-29T08:54:37;5.57;;;2.20;;
61685;SDS011;47592;45.904;8.978;2022-09-29T08:57:03;6.15;;;2.60;;
61685;SDS011;47592;45.904;8.978;2022-09-29T08:59:28;7.97;;;2.47;;
61685;SDS011;47592;45.904;8.978;2022-09-29T09:05:07;6.63;;;2.47;;
61685;SDS011;47592;45.904;8.978;2022-09-29T09:07:45;6.55;;;2.67;;
61685;SDS011;47592;45.904;8.978;2022-09-29T09:15:49;7.72;;;2.63;;
61685;SDS011;47592;45.904;8.978;2022-09-29T09:18:40;8.82;;;2.50;;
61685;SDS011;47592;45.904;8.978;2022-09-29T09:24:21;6.03;;;2.20;;
61685;SDS011;47592;45.904;8.978;2022-09-29T09:26:55;6.55;;;2.40;;
61685;SDS011;47592;45.904;8.978;2022-09-29T09:31:55;6.18;;;2.60;;
61685;SDS011;47592;45.904;8.978;2022-09-29T09:36:58;7.30;;;2.95;;
61685;SDS011;47592;45.904;8.978;2022-09-29T09:39:29;6.50;;;2.97;;
61685;SDS011;47592;45.904;8.978;2022-09-29T09:41:58;7.40;;;2.88;;
61685;SDS011;47592;45.904;8.978;2022-09-29T09:44:30;6.97;;;2.97;;
61685;SDS011;47592;45.904;8.978;2022-09-29T09:47:03;7.30;;;2.67;;
61685;SDS011;47592;45.904;8.978;2022-09-29T09:52:30;6.07;;;3.08;;
61685;SDS011;47592;45.904;8.978;2022-09-29T09:55:02;6.15;;;3.00;;
61685;SDS011;47592;45.904;8.978;2022-09-29T09:57:37;5.78;;;2.58;;
61685;SDS011;47592;45.904;8.978;2022-09-29T10:00:25;6.22;;;2.58;;
61685;SDS011;47592;45.904;8.978;2022-09-29T10:02:55;6.18;;;2.58;;
61685;SDS011;47592;45.904;8.978;2022-09-29T10:05:21;5.40;;;2.45;;
61685;SDS011;47592;45.904;8.978;2022-09-29T10:10:26;5.47;;;2.38;;
61685;SDS011;47592;45.904;8.978;2022-09-29T10:15:32;7.82;;;2.97;;
61685;SDS011;47592;45.904;8.978;2022-09-29T10:18:03;8.13;;;2.72;;
61685;SDS011;47592;45.904;8.978;2022-09-29T10:20:38;6.00;;;3.20;;
61685;SDS011;47592;45.904;8.978;2022-09-29T10:23:48;7.60;;;3.00;;
61685;SDS011;47592;45.904;8.978;2022-09-29T10:28:42;8.30;;;3.17;;
61685;SDS011;47592;45.904;8.978;2022-09-29T10:31:16;7.45;;;3.28;;
61685;SDS011;47592;45.904;8.978;2022-09-29T10:33:48;6.82;;;3.00;;
61685;SDS011;47592;45.904;8.978;2022-09-29T10:36:16;8.68;;;3.70;;
61685;SDS011;47592;45.904;8.978;2022-09-29T10:38:47;9.23;;;3.42;;
61685;SDS011;47592;45.904;8.978;2022-09-29T10:41:15;6.05;;;3.95;;
61685;SDS011;47592;45.904;8.978;2022-09-29T10:43:44;7.47;;;3.40;;
61685;SDS011;47592;45.904;8.978;2022-09-29T10:49:15;7.18;;;3.22;;
61685;SDS011;47592;45.904;8.978;2022-09-29T10:52:01;8.82;;;3.50;;
61685;SDS011;47592;45.904;8.978;2022-09-29T10:54:32;9.02;;;3.75;;
61685;SDS011;47592;45.904;8.978;2022-09-29T10:56:59;8.30;;;3.72;;
61685;SDS011;47592;45.904;8.978;2022-09-29T10:59:49;6.93;;;3.47;;
61685;SDS011;47592;45.904;8.978;2022-09-29T11:02:20;7.38;;;3.72;;
61685;SDS011;47592;45.904;8.978;2022-09-29T11:04:53;6.15;;;3.50;;
61685;SDS011;47592;45.904;8.978;2022-09-29T11:07:20;7.38;;;3.65;;
61685;SDS011;47592;45.904;8.978;2022-09-29T11:09:46;9.00;;;4.40;;
61685;SDS011;47592;45.904;8.978;2022-09-29T11:12:25;7.60;;;4.03;;
61685;SDS011;47592;45.904;8.978;2022-09-29T11:14:53;8.75;;;4.22;;
61685;SDS011;47592;45.904;8.978;2022-09-29T11:19:49;9.23;;;5.13;;
61685;SDS011;47592;45.904;8.978;2022-09-29T11:22:19;9.68;;;4.90;;
61685;SDS011;47592;45.904;8.978;2022-09-29T11:27:46;7.50;;;3.85;;
61685;SDS011;47592;45.904;8.978;2022-09-29T11:30:19;8.10;;;4.28;;
61685;SDS011;47592;45.904;8.978;2022-09-29T11:35:44;10.60;;;4.43;;
61685;SDS011;47592;45.904;8.978;2022-09-29T11:43:52;10.65;;;4.82;;
61685;SDS011;47592;45.904;8.978;2022-09-29T11:46:34;8.73;;;5.15;;
61685;SDS011;47592;45.904;8.978;2022-09-29T12:16:06;9.80;;;6.28;;
61685;SDS011;47592;45.904;8.978;2022-09-29T12:18:39;13.65;;;6.43;;
61685;SDS011;47592;45.904;8.978;2022-09-29T12:21:07;11.02;;;6.47;;
61685;SDS011;47592;45.904;8.978;2022-09-29T12:23:35;9.82;;;5.63;;
61685;SDS011;47592;45.904;8.978;2022-09-29T12:26:13;13.27;;;6.68;;
61685;SDS011;47592;45.904;8.978;2022-09-29T12:31:28;12.48;;;7.50;;
61685;SDS011;47592;45.904;8.978;2022-09-29T12:33:59;9.80;;;6.20;;
61685;SDS011;47592;45.904;8.978;2022-09-29T12:39:28;10.15;;;5.82;;
61685;SDS011;47592;45.904;8.978;2022-09-29T12:51:00;9.43;;;5.47;;
61685;SDS011;47592;45.904;8.978;2022-09-29T12:53:34;9.35;;;5.43;;
61685;SDS011;47592;45.904;8.978;2022-09-29T12:56:09;9.13;;;5.68;;
61685;SDS011;47592;45.904;8.978;2022-09-29T13:01:12;12.00;;;5.70;;
61685;SDS011;47592;45.904;8.978;2022-09-29T13:07:18;10.88;;;6.10;;
61685;SDS011;47592;45.904;8.978;2022-09-29T13:15:57;8.52;;;4.93;;
61685;SDS011;47592;45.904;8.978;2022-09-29T13:27:00;10.27;;;5.22;;
61685;SDS011;47592;45.904;8.978;2022-09-29T13:29:52;8.60;;;4.73;;
61685;SDS011;47592;45.904;8.978;2022-09-29T13:32:42;6.90;;;3.50;;
61685;SDS011;47592;45.904;8.978;2022-09-29T13:35:13;7.43;;;2.95;;
61685;SDS011;47592;45.904;8.978;2022-09-29T13:37:50;8.57;;;2.72;;
61685;SDS011;47592;45.904;8.978;2022-09-29T13:40:25;5.55;;;2.60;;
61685;SDS011;47592;45.904;8.978;2022-09-29T13:42:53;6.03;;;2.78;;
61685;SDS011;47592;45.904;8.978;2022-09-29T13:55:48;7.40;;;3.88;;
61685;SDS011;47592;45.904;8.978;2022-09-29T13:58:23;7.55;;;3.90;;
61685;SDS011;47592;45.904;8.978;2022-09-29T14:00:51;7.22;;;2.75;;
61685;SDS011;47592;45.904;8.978;2022-09-29T14:06:02;6.88;;;3.30;;
61685;SDS011;47592;45.904;8.978;2022-09-29T14:08:36;6.38;;;3.20;;
61685;SDS011;47592;45.904;8.978;2022-09-29T14:11:21;6.70;;;3.63;;
61685;SDS011;47592;45.904;8.978;2022-09-29T14:13:52;8.68;;;3.75;;
61685;SDS011;47592;45.904;8.978;2022-09-29T14:21:52;8.25;;;3.58;;
61685;SDS011;47592;45.904;8.978;2022-09-29T14:29:43;10.93;;;6.82;;
61685;SDS011;47592;45.904;8.978;2022-09-29T14:32:19;13.63;;;7.15;;
61685;SDS011;47592;45.904;8.978;2022-09-29T14:34:47;12.45;;;7.10;;
61685;SDS011;47592;45.904;8.978;2022-09-29T14:37:17;15.18;;;7.60;;
61685;SDS011;47592;45.904;8.978;2022-09-29T14:39:45;14.73;;;7.22;;
61685;SDS011;47592;45.904;8.978;2022-09-29T14:42:31;13.48;;;6.85;;
61685;SDS011;47592;45.904;8.978;2022-09-29T14:44:56;9.73;;;5.32;;
61685;SDS011;47592;45.904;8.978;2022-09-29T14:47:45;7.80;;;3.42;;
61685;SDS011;47592;45.904;8.978;2022-09-29T14:50:58;8.18;;;4.20;;
61685;SDS011;47592;45.904;8.978;2022-09-29T14:53:59;6.70;;;3.55;;
61685;SDS011;47592;45.904;8.978;2022-09-29T14:57:14;7.45;;;3.90;;
61685;SDS011;47592;45.904;8.978;2022-09-29T14:59:36;12.35;;;4.30;;
61685;SDS011;47592;45.904;8.978;2022-09-29T15:04:43;7.00;;;3.80;;
61685;SDS011;47592;45.904;8.978;2022-09-29T15:07:13;10.43;;;4.07;;
61685;SDS011;47592;45.904;8.978;2022-09-29T15:09:54;8.73;;;4.20;;
61685;SDS011;47592;45.904;8.978;2022-09-29T15:12:22;8.95;;;3.70;;
61685;SDS011;47592;45.904;8.978;2022-09-29T15:14:50;9.23;;;4.53;;
61685;SDS011;47592;45.904;8.978;2022-09-29T15:17:26;10.05;;;4.40;;
61685;SDS011;47592;45.904;8.978;2022-09-29T15:25:44;7.43;;;3.92;;
61685;SDS011;47592;45.904;8.978;2022-09-29T15:28:14;10.40;;;4.82;;
61685;SDS011;47592;45.904;8.978;2022-09-29T15:30:42;7.90;;;4.63;;
61685;SDS011;47592;45.904;8.978;2022-09-29T15:35:48;8.32;;;5.05;;
61685;SDS011;47592;45.904;8.978;2022-09-29T15:40:55;8.52;;;4.80;;
61685;SDS011;47592;45.904;8.978;2022-09-29T15:43:27;8.15;;;4.72;;
61685;SDS011;47592;45.904;8.978;2022-09-29T15:45:58;11.38;;;5.00;;
61685;SDS011;47592;45.904;8.978;2022-09-29T15:48:26;8.52;;;4.45;;
61685;SDS011;47592;45.904;8.978;2022-09-29T15:50:52;8.45;;;3.92;;
61685;SDS011;47592;45.904;8.978;2022-09-29T15:53:20;8.15;;;3.80;;
61685;SDS011;47592;45.904;8.978;2022-09-29T15:55:55;10.02;;;3.58;;
61685;SDS011;47592;45.904;8.978;2022-09-29T15:58:43;9.80;;;4.70;;
61685;SDS011;47592;45.904;8.978;2022-09-29T16:01:10;10.05;;;4.90;;
61685;SDS011;47592;45.904;8.978;2022-09-29T16:09:03;7.45;;;3.65;;
61685;SDS011;47592;45.904;8.978;2022-09-29T16:11:32;6.93;;;3.38;;
61685;SDS011;47592;45.904;8.978;2022-09-29T16:13:59;6.88;;;3.80;;
61685;SDS011;47592;45.904;8.978;2022-09-29T16:16:28;7.75;;;2.80;;
61685;SDS011;47592;45.904;8.978;2022-09-29T16:18:58;7.25;;;2.85;;
61685;SDS011;47592;45.904;8.978;2022-09-29T16:21:31;9.87;;;3.80;;
61685;SDS011;47592;45.904;8.978;2022-09-29T16:24:03;8.55;;;4.50;;
61685;SDS011;47592;45.904;8.978;2022-09-29T16:29:05;7.22;;;3.80;;
61685;SDS011;47592;45.904;8.978;2022-09-29T16:31:34;8.25;;;4.90;;
61685;SDS011;47592;45.904;8.978;2022-09-29T16:34:03;10.70;;;5.05;;
61685;SDS011;47592;45.904;8.978;2022-09-29T16:36:45;8.05;;;4.40;;
61685;SDS011;47592;45.904;8.978;2022-09-29T16:39:13;7.40;;;3.97;;
61685;SDS011;47592;45.904;8.978;2022-09-29T16:41:40;7.82;;;4.40;;
61685;SDS011;47592;45.904;8.978;2022-09-29T16:49:35;7.18;;;4.28;;
61685;SDS011;47592;45.904;8.978;2022-09-29T16:52:05;8.32;;;4.95;;
61685;SDS011;47592;45.904;8.978;2022-09-29T16:54:43;7.95;;;3.50;;
61685;SDS011;47592;45.904;8.978;2022-09-29T16:59:57;9.38;;;4.90;;
61685;SDS011;47592;45.904;8.978;2022-09-29T17:02:25;8.57;;;4.13;;
61685;SDS011;47592;45.904;8.978;2022-09-29T17:04:51;5.25;;;2.40;;
61685;SDS011;47592;45.904;8.978;2022-09-29T17:07:20;6.47;;;3.20;;
61685;SDS011;47592;45.904;8.978;2022-09-29T17:09:51;5.35;;;2.53;;
61685;SDS011;47592;45.904;8.978;2022-09-29T17:12:19;9.45;;;5.22;;
61685;SDS011;47592;45.904;8.978;2022-09-29T17:14:44;8.73;;;6.10;;
61685;SDS011;47592;45.904;8.978;2022-09-29T17:17:15;8.10;;;4.55;;
61685;SDS011;47592;45.904;8.978;2022-09-29T17:19:42;7.28;;;4.25;;
61685;SDS011;47592;45.904;8.978;2022-09-29T17:22:14;8.82;;;4.85;;
61685;SDS011;47592;45.904;8.978;2022-09-29T17:24:45;8.50;;;5.20;;
61685;SDS011;47592;45.904;8.978;2022-09-29T17:27:10;9.75;;;4.93;;
61685;SDS011;47592;45.904;8.978;2022-09-29T17:29:55;7.15;;;4.75;;
61685;SDS011;47592;45.904;8.978;2022-09-29T17:32:20;7.50;;;4.47;;
61685;SDS011;47592;45.904;8.978;2022-09-29T17:34:47;7.13;;;4.72;;
61685;SDS011;47592;45.904;8.978;2022-09-29T17:37:13;8.85;;;5.05;;
61685;SDS011;47592;45.904;8.978;2022-09-29T17:39:43;9.25;;;4.65;;
61685;SDS011;47592;45.904;8.978;2022-09-29T17:42:09;7.28;;;4.65;;
61685;SDS011;47592;45.904;8.978;2022-09-29T17:44:37;6.88;;;4.53;;
61685;SDS011;47592;45.904;8.978;2022-09-29T17:47:17;8.00;;;5.82;;
61685;SDS011;47592;45.904;8.978;2022-09-29T17:49:43;7.30;;;4.78;;
61685;SDS011;47592;45.904;8.978;2022-09-29T17:52:11;8.85;;;4.72;;
61685;SDS011;47592;45.904;8.978;2022-09-29T17:54:39;8.93;;;3.97;;
61685;SDS011;47592;45.904;8.978;2022-09-29T17:57:05;6.35;;;2.40;;
61685;SDS011;47592;45.904;8.978;2022-09-29T17:59:34;5.40;;;2.83;;
61685;SDS011;47592;45.904;8.978;2022-09-29T18:02:08;5.95;;;3.10;;
61685;SDS011;47592;45.904;8.978;2022-09-29T18:04:37;6.07;;;3.50;;
61685;SDS011;47592;45.904;8.978;2022-09-29T18:07:05;5.75;;;2.40;;
61685;SDS011;47592;45.904;8.978;2022-09-29T18:09:30;4.90;;;2.40;;
61685;SDS011;47592;45.904;8.978;2022-09-29T18:11:56;5.60;;;3.17;;
61685;SDS011;47592;45.904;8.978;2022-09-29T18:14:22;4.82;;;2.58;;
61685;SDS011;47592;45.904;8.978;2022-09-29T18:16:47;5.57;;;2.40;;
61685;SDS011;47592;45.904;8.978;2022-09-29T18:19:16;5.85;;;2.33;;
61685;SDS011;47592;45.904;8.978;2022-09-29T18:21:42;4.70;;;2.00;;
61685;SDS011;47592;45.904;8.978;2022-09-29T18:24:07;5.53;;;2.15;;
61685;SDS011;47592;45.904;8.978;2022-09-29T18:26:34;3.50;;;1.40;;
61685;SDS011;47592;45.904;8.978;2022-09-29T18:29:00;4.97;;;2.05;;